Arbor, Missouri
Current Conditions -  °F | °C
As of 9:53 AM on Wednesday 26 Nov 2014 (Local Time) from KCGI Reporting Station
Broken Clouds Broken Clouds  
Wind Chill: 27°   Ceiling: 11000
Heat Index: 36°   Visibility: 9mi
Dew Point: 31°   Wind: 14mph
Humidity: 82%   Direction: 150°SSE
Pressure: 30.1"   Gusts: NA
Location:  37.1651°N, 89.623°W
Report Text: KCGI 261553Z 15012KT 9SM BKN110 02/M01 A3010 RMK AO2 SLP194 T00221006
Loading
Personal Weather Stations






























Interactive Weather Map New forecast layout! Learn more

10-Day Weather Forecast

Advertisements
Track Severe Weather on mobile